createdAt,value
2018-12-20T00:00:52.363Z,18.50
2018-12-20T00:01:52.337Z,17.60
2018-12-20T00:02:52.266Z,17.60
2018-12-20T00:03:52.242Z,17.70
2018-12-20T00:04:52.288Z,17.70
2018-12-20T00:05:52.205Z,17.80
2018-12-20T00:06:52.236Z,17.80
2018-12-20T00:07:52.234Z,18.10
2018-12-20T00:08:52.295Z,17.80
2018-12-20T00:09:52.168Z,18.20
2018-12-20T00:10:52.271Z,17.50
2018-12-20T00:11:52.165Z,17.80
2018-12-20T00:12:52.172Z,17.40
2018-12-20T00:13:52.170Z,17.50
2018-12-20T00:14:52.109Z,17.50
2018-12-20T00:15:52.113Z,18.00
2018-12-20T00:16:52.245Z,17.50
2018-12-20T00:17:52.151Z,18.00
2018-12-20T00:18:52.110Z,18.20
2018-12-20T00:19:52.124Z,18.00
2018-12-20T00:20:52.102Z,18.30
2018-12-20T00:21:52.125Z,17.80
2018-12-20T00:22:52.118Z,18.10
2018-12-20T00:23:51.987Z,17.50
2018-12-20T00:24:51.978Z,18.50
2018-12-20T00:25:51.987Z,18.00
2018-12-20T00:26:52.001Z,17.90
2018-12-20T00:27:52.053Z,17.80
2018-12-20T00:28:51.960Z,17.80
2018-12-20T00:29:51.986Z,17.70
2018-12-20T00:30:51.980Z,17.60
2018-12-20T00:31:52.111Z,17.80
2018-12-20T00:32:51.972Z,18.20
2018-12-20T00:33:52.003Z,18.30
2018-12-20T00:34:51.917Z,17.50
2018-12-20T00:35:51.893Z,17.10
2018-12-20T00:36:51.884Z,17.90
2018-12-20T00:37:51.871Z,18.40
2018-12-20T00:38:51.844Z,17.90
2018-12-20T00:39:51.833Z,17.60
2018-12-20T00:40:51.835Z,18.20
2018-12-20T00:41:51.798Z,18.20
2018-12-20T00:42:51.900Z,18.30
2018-12-20T00:43:51.766Z,18.00
2018-12-20T00:44:51.781Z,17.60
2018-12-20T00:45:51.912Z,18.20
2018-12-20T00:46:51.765Z,18.40
2018-12-20T00:47:51.753Z,18.00
2018-12-20T00:48:51.800Z,19.20
2018-12-20T00:49:51.816Z,17.70
2018-12-20T00:50:51.733Z,18.20
2018-12-20T00:51:51.768Z,17.70
2018-12-20T00:52:51.722Z,18.90
2018-12-20T00:53:51.751Z,18.70
2018-12-20T00:54:51.690Z,18.20
2018-12-20T00:55:51.639Z,18.10
2018-12-20T00:56:51.717Z,18.50
2018-12-20T00:57:51.735Z,18.00
2018-12-20T00:58:51.737Z,18.70
2018-12-20T00:59:51.713Z,18.50
2018-12-20T01:00:51.796Z,17.70
2018-12-20T01:01:51.689Z,18.70
2018-12-20T01:02:55.186Z,17.80
2018-12-20T01:03:51.571Z,18.40
2018-12-20T01:04:51.612Z,18.40
2018-12-20T01:05:51.637Z,18.20
2018-12-20T01:06:51.527Z,18.20
2018-12-20T01:07:51.595Z,18.70
2018-12-20T01:08:51.650Z,19.10
2018-12-20T01:09:51.490Z,19.00
2018-12-20T01:10:51.677Z,18.20
2018-12-20T01:11:51.497Z,18.40
2018-12-20T01:12:51.563Z,18.00
2018-12-20T01:13:51.515Z,19.10
2018-12-20T01:14:51.531Z,18.60
2018-12-20T01:15:51.428Z,18.40
2018-12-20T01:16:51.521Z,19.30
2018-12-20T01:17:51.423Z,18.30
2018-12-20T01:18:51.389Z,18.40
2018-12-20T01:19:51.437Z,17.90
2018-12-20T01:20:51.419Z,18.70
2018-12-20T01:21:51.374Z,18.50
2018-12-20T01:22:51.466Z,18.20
2018-12-20T01:23:51.368Z,17.90
2018-12-20T01:24:51.385Z,18.70
2018-12-20T01:25:51.311Z,18.80
2018-12-20T01:26:51.322Z,19.20
2018-12-20T01:27:51.313Z,18.90
2018-12-20T01:28:51.396Z,18.80
2018-12-20T01:29:51.329Z,18.50
2018-12-20T01:30:51.407Z,18.80
2018-12-20T01:31:51.305Z,18.70
2018-12-20T01:32:51.259Z,18.30
2018-12-20T01:33:51.322Z,18.20
2018-12-20T01:34:51.314Z,19.00
2018-12-20T01:35:51.280Z,18.90
2018-12-20T01:36:51.282Z,18.60
2018-12-20T01:37:51.222Z,19.20
2018-12-20T01:38:51.235Z,18.80
2018-12-20T01:39:51.175Z,19.00
2018-12-20T01:40:51.189Z,18.50
2018-12-20T01:41:51.138Z,18.60
2018-12-20T01:42:51.304Z,18.00
2018-12-20T01:43:51.141Z,18.50
2018-12-20T01:44:53.551Z,18.80
2018-12-20T01:45:51.322Z,18.40
2018-12-20T01:46:51.107Z,19.40
2018-12-20T01:47:51.103Z,18.40
2018-12-20T01:48:51.211Z,18.50
2018-12-20T01:49:51.094Z,18.10
2018-12-20T01:50:51.064Z,17.80
2018-12-20T01:51:51.113Z,17.80
2018-12-20T01:52:51.032Z,18.80
2018-12-20T01:53:50.998Z,18.50
2018-12-20T01:54:50.994Z,18.10
2018-12-20T01:55:51.079Z,18.50
2018-12-20T01:56:51.103Z,18.20
2018-12-20T01:57:50.965Z,18.20
2018-12-20T01:58:50.976Z,18.20
2018-12-20T01:59:50.940Z,18.70
2018-12-20T02:00:50.919Z,19.10
2018-12-20T02:01:50.944Z,17.40
2018-12-20T02:02:50.938Z,18.40
2018-12-20T02:03:50.934Z,17.50
2018-12-20T02:04:50.976Z,18.70
2018-12-20T02:05:50.920Z,18.40
2018-12-20T02:06:51.046Z,18.30
2018-12-20T02:07:50.913Z,18.70
2018-12-20T02:08:50.839Z,18.40
2018-12-20T02:09:50.851Z,18.40
2018-12-20T02:10:50.857Z,18.60
2018-12-20T02:11:50.881Z,18.20
2018-12-20T02:12:50.822Z,18.30
2018-12-20T02:13:50.784Z,19.30
2018-12-20T02:14:51.028Z,18.60
2018-12-20T02:15:50.811Z,18.60
2018-12-20T02:16:50.784Z,18.40
2018-12-20T02:17:50.847Z,19.10
2018-12-20T02:18:50.782Z,18.20
2018-12-20T02:19:50.712Z,18.30
2018-12-20T02:20:50.975Z,19.10
2018-12-20T02:21:50.791Z,18.30
2018-12-20T02:22:50.752Z,19.00
2018-12-20T02:23:50.672Z,18.90
2018-12-20T02:24:50.678Z,18.70
2018-12-20T02:25:50.728Z,18.60
2018-12-20T02:26:50.770Z,19.20
2018-12-20T02:27:50.632Z,18.50
2018-12-20T02:28:50.663Z,18.40
2018-12-20T02:29:50.757Z,18.90
2018-12-20T02:30:50.722Z,18.40
2018-12-20T02:31:50.641Z,18.10
2018-12-20T02:32:50.589Z,19.10
2018-12-20T02:33:50.600Z,18.80
2018-12-20T02:34:50.619Z,19.00
2018-12-20T02:35:50.632Z,18.60
2018-12-20T02:36:50.569Z,18.80
2018-12-20T02:37:50.637Z,18.90
2018-12-20T02:38:50.668Z,18.90
2018-12-20T02:39:50.727Z,18.80
2018-12-20T02:40:50.544Z,19.10
2018-12-20T02:41:50.583Z,19.10
2018-12-20T02:42:50.464Z,18.80
2018-12-20T02:43:50.479Z,18.80
2018-12-20T02:44:50.555Z,18.50
2018-12-20T02:45:50.438Z,18.80
2018-12-20T02:46:50.625Z,19.50
2018-12-20T02:47:50.419Z,19.70
2018-12-20T02:48:50.396Z,19.20
2018-12-20T02:49:50.429Z,19.50
2018-12-20T02:50:50.557Z,18.50
2018-12-20T02:51:50.540Z,19.30
2018-12-20T02:52:50.529Z,19.10
2018-12-20T02:53:50.379Z,18.90
2018-12-20T02:54:50.430Z,19.60
2018-12-20T02:55:50.381Z,19.00
2018-12-20T02:56:50.518Z,18.60
2018-12-20T02:57:50.311Z,18.80
2018-12-20T02:58:50.576Z,19.20
2018-12-20T02:59:50.294Z,18.70
2018-12-20T03:00:50.516Z,18.80
2018-12-20T03:01:50.304Z,19.10
2018-12-20T03:02:50.255Z,19.00
2018-12-20T03:03:50.237Z,19.40
2018-12-20T03:04:50.361Z,19.40
2018-12-20T03:05:50.269Z,19.10
2018-12-20T03:06:50.207Z,19.20
2018-12-20T03:07:50.237Z,19.10
2018-12-20T03:08:50.177Z,19.00
2018-12-20T03:09:50.192Z,19.00
2018-12-20T03:10:50.193Z,18.70
2018-12-20T03:11:50.145Z,18.90
2018-12-20T03:12:50.290Z,18.90
2018-12-20T03:13:50.162Z,19.10
2018-12-20T03:14:50.238Z,19.00
2018-12-20T03:15:50.102Z,19.90
2018-12-20T03:16:50.385Z,19.90
2018-12-20T03:17:50.239Z,19.50
2018-12-20T03:18:50.199Z,18.90
2018-12-20T03:19:50.166Z,18.90
2018-12-20T03:20:50.121Z,19.60
2018-12-20T03:21:50.157Z,19.80
2018-12-20T03:22:50.258Z,20.00
2018-12-20T03:23:50.013Z,19.90
2018-12-20T03:24:50.006Z,19.50
2018-12-20T03:25:50.036Z,19.40
2018-12-20T03:26:50.153Z,20.20
2018-12-20T03:27:50.006Z,19.00
2018-12-20T03:28:50.170Z,19.10
2018-12-20T03:29:50.037Z,19.50
2018-12-20T03:30:50.465Z,19.40
2018-12-20T03:31:50.337Z,19.80
2018-12-20T03:32:49.937Z,19.60
2018-12-20T03:33:50.472Z,19.50
2018-12-20T03:34:49.914Z,19.80
2018-12-20T03:35:49.902Z,19.50
2018-12-20T03:36:49.895Z,19.20
2018-12-20T03:37:49.898Z,19.50
2018-12-20T03:38:49.894Z,19.90
2018-12-20T03:39:49.844Z,19.90
2018-12-20T03:40:49.867Z,19.00
2018-12-20T03:41:50.034Z,19.30
2018-12-20T03:42:49.910Z,19.80
2018-12-20T03:43:50.001Z,19.50
2018-12-20T03:44:49.828Z,18.80
2018-12-20T03:45:49.839Z,19.50
2018-12-20T03:46:49.765Z,19.30
2018-12-20T03:47:49.797Z,19.80
2018-12-20T03:48:49.801Z,19.40
2018-12-20T03:49:49.776Z,19.60
2018-12-20T03:50:49.719Z,19.80
2018-12-20T03:51:49.825Z,19.40
2018-12-20T03:52:49.814Z,19.20
2018-12-20T03:53:49.791Z,20.10
2018-12-20T03:54:49.748Z,19.20
2018-12-20T03:55:49.771Z,18.80
2018-12-20T03:56:49.708Z,19.80
2018-12-20T03:57:49.660Z,19.70
2018-12-20T03:58:49.828Z,19.30
2018-12-20T03:59:49.659Z,19.70
2018-12-20T04:00:49.777Z,19.50
2018-12-20T04:01:49.601Z,19.20
2018-12-20T04:02:49.767Z,19.30
2018-12-20T04:03:49.653Z,19.30
2018-12-20T04:04:49.597Z,19.50
2018-12-20T04:05:49.739Z,19.20
2018-12-20T04:06:49.587Z,19.60
2018-12-20T04:07:49.629Z,19.40
2018-12-20T04:08:49.686Z,19.40
2018-12-20T04:09:49.567Z,19.50
2018-12-20T04:10:49.513Z,19.30
2018-12-20T04:11:49.515Z,19.00
2018-12-20T04:12:49.521Z,19.10
2018-12-20T04:13:49.618Z,19.60
2018-12-20T04:14:49.552Z,19.50
2018-12-20T04:15:49.493Z,19.90
2018-12-20T04:16:49.645Z,19.40
2018-12-20T04:17:49.469Z,19.30
2018-12-20T04:18:49.795Z,19.20
2018-12-20T04:19:49.411Z,18.90
2018-12-20T04:20:49.416Z,19.70
2018-12-20T04:21:49.636Z,19.30
2018-12-20T04:22:49.371Z,18.90
2018-12-20T04:23:49.566Z,19.50
2018-12-20T04:24:49.490Z,19.20
2018-12-20T04:25:49.634Z,19.20
2018-12-20T04:26:49.331Z,20.00
2018-12-20T04:27:49.446Z,19.80
2018-12-20T04:28:49.302Z,19.30
2018-12-20T04:29:49.365Z,19.40
2018-12-20T04:30:49.353Z,18.40
2018-12-20T04:31:49.443Z,19.50
2018-12-20T04:32:49.529Z,19.10
2018-12-20T04:33:49.329Z,18.80
2018-12-20T04:34:49.570Z,19.50
2018-12-20T04:35:49.295Z,19.80
2018-12-20T04:36:49.264Z,19.40
2018-12-20T04:37:49.228Z,18.90
2018-12-20T04:38:49.371Z,18.50
2018-12-20T04:39:49.224Z,20.00
2018-12-20T04:40:49.321Z,19.80
2018-12-20T04:41:49.471Z,19.90
2018-12-20T04:42:49.370Z,19.60
2018-12-20T04:43:49.265Z,18.80
2018-12-20T04:44:49.165Z,19.40
2018-12-20T04:45:49.119Z,19.30
2018-12-20T04:46:49.179Z,19.00
2018-12-20T04:47:49.317Z,19.90
2018-12-20T04:48:49.161Z,19.90
2018-12-20T04:49:49.110Z,19.70
2018-12-20T04:50:49.166Z,19.50
2018-12-20T04:51:49.186Z,19.80
2018-12-20T04:52:49.088Z,19.20
2018-12-20T04:53:49.031Z,19.40
2018-12-20T04:54:49.035Z,19.90
2018-12-20T04:55:49.171Z,19.40
2018-12-20T04:56:49.045Z,18.70
2018-12-20T04:57:48.987Z,19.30
2018-12-20T04:58:49.238Z,19.50
2018-12-20T04:59:49.030Z,19.40
2018-12-20T05:00:49.015Z,19.20
2018-12-20T05:01:48.945Z,19.20
2018-12-20T05:02:48.952Z,20.30
2018-12-20T05:03:49.160Z,19.40
2018-12-20T05:04:48.980Z,20.10
2018-12-20T05:05:48.902Z,20.00
2018-12-20T05:06:48.895Z,20.20
2018-12-20T05:07:48.912Z,19.90
2018-12-20T05:08:48.954Z,19.50
2018-12-20T05:09:49.173Z,19.20
2018-12-20T05:10:48.880Z,20.00
2018-12-20T05:11:48.963Z,20.30
2018-12-20T05:12:48.862Z,20.10
2018-12-20T05:13:48.837Z,19.80
2018-12-20T05:14:48.992Z,20.00
2018-12-20T05:15:55.992Z,19.70
2018-12-20T05:16:49.779Z,20.20
2018-12-20T05:17:48.871Z,19.70
2018-12-20T05:18:48.872Z,21.10
2018-12-20T05:19:48.944Z,20.50
2018-12-20T05:20:48.747Z,20.00
2018-12-20T05:21:49.036Z,19.80
2018-12-20T05:22:48.747Z,20.00
2018-12-20T05:23:48.798Z,20.00
2018-12-20T05:24:48.730Z,20.40
2018-12-20T05:25:48.825Z,20.40
2018-12-20T05:26:48.810Z,20.60
2018-12-20T05:27:48.670Z,19.70
2018-12-20T05:28:48.903Z,19.90
2018-12-20T05:29:48.683Z,20.80
2018-12-20T05:30:48.623Z,20.00
2018-12-20T05:31:48.612Z,20.70
2018-12-20T05:32:48.630Z,20.40
2018-12-20T05:33:48.592Z,20.60
2018-12-20T05:34:48.982Z,20.90
2018-12-20T05:35:48.700Z,20.80
2018-12-20T05:36:48.636Z,21.00
2018-12-20T05:37:48.638Z,20.20
2018-12-20T05:38:48.546Z,20.90
2018-12-20T05:39:48.619Z,20.60
2018-12-20T05:40:48.630Z,21.00
2018-12-20T05:41:48.781Z,21.20
2018-12-20T05:42:48.608Z,20.70
2018-12-20T05:43:48.484Z,19.90
2018-12-20T05:44:48.701Z,20.50
2018-12-20T05:45:48.670Z,20.80
2018-12-20T05:46:48.477Z,20.60
2018-12-20T05:47:48.485Z,20.70
2018-12-20T05:48:48.632Z,21.20
2018-12-20T05:49:48.511Z,19.90
2018-12-20T05:50:48.553Z,20.80
2018-12-20T05:51:48.606Z,20.70
2018-12-20T05:52:48.415Z,21.00
2018-12-20T05:53:48.429Z,21.10
2018-12-20T05:54:48.391Z,20.80
2018-12-20T05:55:48.367Z,21.30
2018-12-20T05:56:48.506Z,21.30
2018-12-20T05:57:48.372Z,21.20
2018-12-20T05:58:48.603Z,21.60
2018-12-20T05:59:48.319Z,21.50
2018-12-20T06:00:48.457Z,20.50
2018-12-20T06:01:48.377Z,21.20
2018-12-20T06:02:48.328Z,21.10
2018-12-20T06:03:48.285Z,20.90
2018-12-20T06:04:48.261Z,21.50
2018-12-20T06:05:48.276Z,21.40
2018-12-20T06:06:48.404Z,20.90
2018-12-20T06:07:48.349Z,21.40
2018-12-20T06:08:48.504Z,20.70
2018-12-20T06:09:48.518Z,20.80
2018-12-20T06:10:48.203Z,20.70
2018-12-20T06:11:48.298Z,21.70
2018-12-20T06:12:48.168Z,21.30
2018-12-20T06:13:48.451Z,21.10
2018-12-20T06:14:48.146Z,21.10
2018-12-20T06:15:48.156Z,22.00
2018-12-20T06:16:48.138Z,21.30
2018-12-20T06:17:48.136Z,22.00
2018-12-20T06:18:48.130Z,21.70
2018-12-20T06:19:48.268Z,21.50
2018-12-20T06:20:48.301Z,21.60
2018-12-20T06:21:48.113Z,21.00
2018-12-20T06:22:48.055Z,21.30
2018-12-20T06:23:48.060Z,21.10
2018-12-20T06:24:48.096Z,22.10
2018-12-20T06:25:48.020Z,21.20
2018-12-20T06:26:48.049Z,22.60
2018-12-20T06:27:48.006Z,21.60
2018-12-20T06:28:47.990Z,21.30
2018-12-20T06:29:47.981Z,21.60
2018-12-20T06:30:47.974Z,21.40
2018-12-20T06:31:47.980Z,22.10
2018-12-20T06:32:47.981Z,22.00
2018-12-20T06:33:47.936Z,21.00
2018-12-20T06:34:47.931Z,21.30
2018-12-20T06:35:47.913Z,21.60
2018-12-20T06:36:47.911Z,21.30
2018-12-20T06:37:47.933Z,20.50
2018-12-20T06:38:47.889Z,21.90
2018-12-20T06:39:47.879Z,22.30
2018-12-20T06:40:47.877Z,21.90
2018-12-20T06:41:47.853Z,21.90
2018-12-20T06:42:47.879Z,21.70
2018-12-20T06:43:47.832Z,21.50
2018-12-20T06:44:47.818Z,22.30
2018-12-20T06:45:47.808Z,22.20
2018-12-20T06:46:47.803Z,22.00
2018-12-20T06:47:47.821Z,21.40
2018-12-20T06:48:47.788Z,21.30
2018-12-20T06:49:47.774Z,21.30
2018-12-20T06:50:47.774Z,21.50
2018-12-20T06:51:47.752Z,21.80
2018-12-20T06:52:47.752Z,21.90
2018-12-20T06:53:47.774Z,21.70
2018-12-20T06:54:47.720Z,21.80
2018-12-20T06:55:47.701Z,21.80
2018-12-20T06:56:47.725Z,22.30
2018-12-20T06:57:47.681Z,21.60
2018-12-20T06:58:47.728Z,21.50
2018-12-20T06:59:47.691Z,21.70
2018-12-20T07:00:47.661Z,21.40
2018-12-20T07:01:47.628Z,22.00
2018-12-20T07:02:47.647Z,21.20
2018-12-20T07:03:47.617Z,21.70
2018-12-20T07:04:47.631Z,21.20
2018-12-20T07:05:47.625Z,21.70
2018-12-20T07:06:47.579Z,21.80
2018-12-20T07:07:47.573Z,22.00
2018-12-20T07:08:47.590Z,21.60
2018-12-20T07:09:47.577Z,22.50
2018-12-20T07:10:47.568Z,21.50
2018-12-20T07:11:47.529Z,21.90
2018-12-20T07:12:47.515Z,21.30
2018-12-20T07:13:47.504Z,22.10
2018-12-20T07:14:47.520Z,21.60
2018-12-20T07:15:47.483Z,21.60
2018-12-20T07:16:47.471Z,21.40
2018-12-20T07:17:47.508Z,21.60
2018-12-20T07:18:47.458Z,21.20
2018-12-20T07:19:47.460Z,21.50
2018-12-20T07:20:47.447Z,20.90
2018-12-20T07:21:47.415Z,21.20
2018-12-20T07:22:47.426Z,22.00
2018-12-20T07:23:47.405Z,21.10
2018-12-20T07:24:47.380Z,21.30
2018-12-20T07:25:47.399Z,21.50
2018-12-20T07:26:47.371Z,22.00
2018-12-20T07:27:47.345Z,21.10
2018-12-20T07:28:47.344Z,20.60
2018-12-20T07:29:47.339Z,20.70
2018-12-20T07:30:47.360Z,21.40
2018-12-20T07:31:47.307Z,21.30
2018-12-20T07:32:47.295Z,21.00
2018-12-20T07:33:47.277Z,22.00
2018-12-20T07:34:47.988Z,21.60
2018-12-20T07:35:47.273Z,21.50
2018-12-20T07:36:47.284Z,22.10
2018-12-20T07:37:47.263Z,21.40
2018-12-20T07:38:47.246Z,21.40
2018-12-20T07:39:47.237Z,21.90
2018-12-20T07:40:47.203Z,20.70
2018-12-20T07:41:47.212Z,21.00
2018-12-20T07:42:47.196Z,21.50
2018-12-20T07:43:47.198Z,21.40
2018-12-20T07:44:47.181Z,20.70
2018-12-20T07:45:47.156Z,21.00
2018-12-20T07:46:47.192Z,21.70
2018-12-20T07:47:47.129Z,21.30
2018-12-20T07:48:47.120Z,20.70
2018-12-20T07:49:47.152Z,21.10
2018-12-20T07:50:47.106Z,20.60
2018-12-20T07:51:47.085Z,20.80
2018-12-20T07:52:47.119Z,20.30
2018-12-20T07:53:47.074Z,20.90
2018-12-20T07:54:47.055Z,21.50
2018-12-20T07:55:47.081Z,21.10
2018-12-20T07:56:47.042Z,21.20
2018-12-20T07:57:47.047Z,21.60
2018-12-20T07:58:47.023Z,21.60
2018-12-20T07:59:47.004Z,21.10
2018-12-20T08:00:46.983Z,20.90
2018-12-20T08:01:46.972Z,20.20
2018-12-20T08:02:47.035Z,21.00
2018-12-20T08:03:46.950Z,21.20
2018-12-20T08:04:46.967Z,20.70
2018-12-20T08:05:46.934Z,21.00
2018-12-20T08:06:46.916Z,21.00
2018-12-20T08:07:46.913Z,21.40
2018-12-20T08:08:46.915Z,21.50
2018-12-20T08:09:46.883Z,20.70
2018-12-20T08:10:46.878Z,20.70
2018-12-20T08:11:46.870Z,20.40
2018-12-20T08:12:46.855Z,20.90
2018-12-20T08:13:46.869Z,20.20
2018-12-20T08:14:46.835Z,19.90
2018-12-20T08:15:46.844Z,20.00
2018-12-20T08:16:46.820Z,20.40
2018-12-20T08:17:46.800Z,20.20
2018-12-20T08:18:46.832Z,20.60
2018-12-20T08:19:46.879Z,21.00
2018-12-20T08:20:46.765Z,20.70
2018-12-20T08:21:46.755Z,20.20
2018-12-20T08:22:46.779Z,20.10
2018-12-20T08:23:46.740Z,20.60
2018-12-20T08:24:46.764Z,19.60
2018-12-20T08:25:46.722Z,20.80
2018-12-20T08:26:46.703Z,19.70
2018-12-20T08:27:46.723Z,20.40
2018-12-20T08:28:46.707Z,20.20
2018-12-20T08:29:47.358Z,19.50
2018-12-20T08:30:46.735Z,20.00
2018-12-20T08:31:46.678Z,19.70
2018-12-20T08:32:46.686Z,19.80
2018-12-20T08:33:46.650Z,19.70
2018-12-20T08:34:46.650Z,19.60
2018-12-20T08:35:46.601Z,19.60
2018-12-20T08:36:46.592Z,19.30
2018-12-20T08:37:46.601Z,19.40
2018-12-20T08:38:46.606Z,19.60
2018-12-20T08:39:46.560Z,19.20
2018-12-20T08:40:46.549Z,20.00
2018-12-20T08:41:46.540Z,19.40
2018-12-20T08:42:46.549Z,19.90
2018-12-20T08:43:46.540Z,19.40
2018-12-20T08:44:46.509Z,19.70
2018-12-20T08:45:46.494Z,19.10
2018-12-20T08:46:54.112Z,19.60
2018-12-20T08:47:47.484Z,18.40
2018-12-20T08:48:46.498Z,18.40
2018-12-20T08:49:46.461Z,18.80
2018-12-20T08:50:46.460Z,18.70
2018-12-20T08:51:49.194Z,19.00
2018-12-20T08:52:46.416Z,18.70
2018-12-20T08:53:46.423Z,19.20
2018-12-20T08:54:46.428Z,18.80
2018-12-20T08:55:46.394Z,18.60
2018-12-20T08:56:46.373Z,18.40
2018-12-20T08:57:46.368Z,19.40
2018-12-20T08:58:46.366Z,18.20
2018-12-20T08:59:46.366Z,18.30
2018-12-20T09:00:46.332Z,18.30
2018-12-20T09:01:46.329Z,18.70
2018-12-20T09:02:46.313Z,17.80
2018-12-20T09:03:46.304Z,18.10
2018-12-20T09:04:46.325Z,18.10
2018-12-20T09:05:46.280Z,17.80
2018-12-20T09:06:46.352Z,17.60
2018-12-20T09:07:46.291Z,17.80
2018-12-20T09:08:46.243Z,18.70
2018-12-20T09:09:46.277Z,17.80
2018-12-20T09:10:46.253Z,17.70
2018-12-20T09:11:46.234Z,17.90
2018-12-20T09:12:46.223Z,18.30
2018-12-20T09:13:46.190Z,17.80
2018-12-20T09:14:46.176Z,17.20
2018-12-20T09:15:46.206Z,17.50
2018-12-20T09:16:46.185Z,17.60
2018-12-20T09:17:46.183Z,18.10
2018-12-20T09:18:46.144Z,17.50
2018-12-20T09:19:46.492Z,17.90
2018-12-20T09:20:46.155Z,17.70
2018-12-20T09:21:46.104Z,17.50
2018-12-20T09:22:46.093Z,18.00
2018-12-20T09:23:46.083Z,17.30
2018-12-20T09:24:53.718Z,17.60
2018-12-20T09:25:46.082Z,18.30
2018-12-20T09:26:46.101Z,16.70
2018-12-20T09:27:46.050Z,17.40
2018-12-20T09:28:46.047Z,16.90
2018-12-20T09:29:46.019Z,17.50
2018-12-20T09:30:46.013Z,16.60
2018-12-20T09:31:45.997Z,17.20
2018-12-20T09:32:45.977Z,17.00
2018-12-20T09:33:45.991Z,17.20
2018-12-20T09:34:45.956Z,16.50
2018-12-20T09:35:45.948Z,16.50
2018-12-20T09:36:45.951Z,16.30
2018-12-20T09:37:45.930Z,16.50
2018-12-20T09:38:45.950Z,17.40
2018-12-20T09:39:45.924Z,17.20
2018-12-20T09:40:45.918Z,16.20
2018-12-20T09:41:45.908Z,16.20
2018-12-20T09:42:45.878Z,16.60
2018-12-20T09:43:45.897Z,15.60
2018-12-20T09:44:45.977Z,15.80
2018-12-20T09:45:45.844Z,16.10
2018-12-20T09:46:45.836Z,16.10
2018-12-20T09:47:45.816Z,16.30
2018-12-20T09:48:46.415Z,16.30
2018-12-20T09:49:45.829Z,15.70
2018-12-20T09:50:45.793Z,16.50
2018-12-20T09:51:46.561Z,16.10
2018-12-20T09:52:45.878Z,16.60
2018-12-20T09:53:45.758Z,15.70
2018-12-20T09:54:45.766Z,15.80
2018-12-20T09:55:45.747Z,15.80
2018-12-20T09:56:45.721Z,15.00
2018-12-20T09:57:45.718Z,15.40
2018-12-20T09:58:45.746Z,15.40
2018-12-20T09:59:45.728Z,15.20
2018-12-20T10:00:45.720Z,15.00
2018-12-20T10:01:45.663Z,15.40
2018-12-20T10:02:45.675Z,15.70
2018-12-20T10:03:53.273Z,14.60
2018-12-20T10:04:45.654Z,15.10
2018-12-20T10:05:45.637Z,14.70
2018-12-20T10:06:45.617Z,15.00
2018-12-20T10:07:45.607Z,15.20
2018-12-20T10:08:45.637Z,15.30
2018-12-20T10:09:45.576Z,15.10
2018-12-20T10:10:45.626Z,15.20
2018-12-20T10:11:45.572Z,14.90
2018-12-20T10:12:45.543Z,15.30
2018-12-20T10:13:45.537Z,14.60
2018-12-20T10:14:45.559Z,14.20
2018-12-20T10:15:45.513Z,14.50
2018-12-20T10:16:45.527Z,14.30
2018-12-20T10:17:45.502Z,13.50
2018-12-20T10:18:45.478Z,14.90
2018-12-20T10:19:45.526Z,14.40
2018-12-20T10:20:45.479Z,14.50
2018-12-20T10:21:45.451Z,13.90
2018-12-20T10:22:45.458Z,14.10
2018-12-20T10:23:45.438Z,14.20
2018-12-20T10:24:45.456Z,14.20
2018-12-20T10:25:45.409Z,14.10
2018-12-20T10:26:45.403Z,14.50
2018-12-20T10:27:45.384Z,14.00
2018-12-20T10:28:45.386Z,13.70
2018-12-20T10:29:45.419Z,14.30
2018-12-20T10:30:45.346Z,13.50
2018-12-20T10:31:45.351Z,13.40
2018-12-20T10:32:45.343Z,13.70
2018-12-20T10:33:45.312Z,12.80
2018-12-20T10:34:45.308Z,13.30
2018-12-20T10:35:45.314Z,14.00
2018-12-20T10:36:45.291Z,13.40
2018-12-20T10:37:45.302Z,13.30
2018-12-20T10:38:45.265Z,12.90
2018-12-20T10:39:45.265Z,13.00
2018-12-20T10:40:45.281Z,13.00
2018-12-20T10:41:45.242Z,13.00
2018-12-20T10:42:45.222Z,13.10
2018-12-20T10:43:45.209Z,12.80
2018-12-20T10:44:45.222Z,13.00
2018-12-20T10:45:45.200Z,12.70
2018-12-20T10:46:45.188Z,13.10
2018-12-20T10:47:45.173Z,12.20
2018-12-20T10:48:45.155Z,13.10
2018-12-20T10:49:45.169Z,12.30
2018-12-20T10:50:45.134Z,12.20
2018-12-20T10:51:45.121Z,12.00
2018-12-20T10:52:45.145Z,12.20
2018-12-20T10:53:45.100Z,12.80
2018-12-20T10:54:45.106Z,11.60
2018-12-20T10:55:45.095Z,12.00
2018-12-20T10:56:45.062Z,12.00
2018-12-20T10:57:45.064Z,11.20
2018-12-20T10:58:45.050Z,12.00
2018-12-20T10:59:45.099Z,11.90
2018-12-20T11:00:45.037Z,11.90
2018-12-20T11:01:45.029Z,12.40
2018-12-20T11:02:45.007Z,11.80
2018-12-20T11:03:45.002Z,11.70
2018-12-20T11:04:44.984Z,11.70
2018-12-20T11:05:45.002Z,11.90
2018-12-20T11:06:44.977Z,12.00
2018-12-20T11:07:44.961Z,11.50
2018-12-20T11:08:44.939Z,11.30
2018-12-20T11:09:44.932Z,11.60
2018-12-20T11:10:44.955Z,11.50
2018-12-20T11:11:44.904Z,11.30
2018-12-20T11:12:44.914Z,11.70
2018-12-20T11:13:44.891Z,11.80
2018-12-20T11:14:44.894Z,11.40
2018-12-20T11:15:44.876Z,11.50
2018-12-20T11:16:44.868Z,11.50
2018-12-20T11:17:44.837Z,11.20
2018-12-20T11:18:44.837Z,11.80
2018-12-20T11:19:44.828Z,12.20
2018-12-20T11:20:44.892Z,13.50
2018-12-20T11:21:45.773Z,15.00
2018-12-20T11:22:44.799Z,14.50
2018-12-20T11:23:44.812Z,12.20
2018-12-20T11:24:44.763Z,11.20
2018-12-20T11:25:44.766Z,11.30
2018-12-20T11:26:44.760Z,15.00
2018-12-20T11:27:44.734Z,13.40
2018-12-20T11:28:44.715Z,11.40
2018-12-20T11:29:44.737Z,11.10
2018-12-20T11:30:44.713Z,11.60
2018-12-20T11:31:44.704Z,10.80
2018-12-20T11:32:44.689Z,11.00
2018-12-20T11:33:44.665Z,10.90
2018-12-20T11:34:44.658Z,11.20
2018-12-20T11:35:44.640Z,11.50
2018-12-20T11:36:44.702Z,11.30
2018-12-20T11:37:44.654Z,11.40
2018-12-20T11:38:44.798Z,11.30
2018-12-20T11:39:44.597Z,10.90
2018-12-20T11:40:44.602Z,11.10
2018-12-20T11:41:44.583Z,10.80
2018-12-20T11:42:44.588Z,10.80
2018-12-20T11:43:44.554Z,11.40
2018-12-20T11:44:44.550Z,11.40
2018-12-20T11:45:44.540Z,11.20
2018-12-20T11:46:44.519Z,10.90
2018-12-20T11:47:46.081Z,10.90
2018-12-20T11:48:44.506Z,11.30
2018-12-20T11:49:44.487Z,11.10
2018-12-20T11:50:44.489Z,11.50
2018-12-20T11:51:44.472Z,11.20
2018-12-20T11:52:44.502Z,11.20
2018-12-20T11:53:44.447Z,10.90
2018-12-20T11:54:44.544Z,11.00
2018-12-20T11:55:44.433Z,10.70
2018-12-20T11:56:44.424Z,10.70
2018-12-20T11:57:44.410Z,10.90
2018-12-20T11:58:44.430Z,10.70
2018-12-20T11:59:44.441Z,10.60
2018-12-20T12:00:44.371Z,10.50
2018-12-20T12:01:44.356Z,10.60
2018-12-20T12:02:44.351Z,10.50
2018-12-20T12:03:44.361Z,10.30
2018-12-20T12:04:44.328Z,10.50
2018-12-20T12:05:44.320Z,10.70
2018-12-20T12:06:44.322Z,10.80
2018-12-20T12:07:44.292Z,10.60
2018-12-20T12:08:44.319Z,10.60
2018-12-20T12:09:44.289Z,10.20
2018-12-20T12:10:44.275Z,10.40
2018-12-20T12:11:44.269Z,10.30
2018-12-20T12:12:44.253Z,10.10
2018-12-20T12:13:44.238Z,10.30
2018-12-20T12:14:44.239Z,9.70
2018-12-20T12:15:44.216Z,10.10
2018-12-20T12:16:44.234Z,9.40
2018-12-20T12:17:44.192Z,9.30
2018-12-20T12:18:44.172Z,9.20
2018-12-20T12:19:44.201Z,8.90
2018-12-20T12:20:44.179Z,8.60
2018-12-20T12:21:44.148Z,8.30
2018-12-20T12:22:44.130Z,7.80
2018-12-20T12:23:44.144Z,8.20
2018-12-20T12:24:44.180Z,7.80
2018-12-20T12:25:44.098Z,8.20
2018-12-20T12:26:44.112Z,7.80
2018-12-20T12:27:44.094Z,7.80
2018-12-20T12:28:44.070Z,7.20
2018-12-20T12:29:44.155Z,7.60
2018-12-20T12:30:44.040Z,7.90
2018-12-20T12:31:44.042Z,7.40
2018-12-20T12:32:44.035Z,7.20
2018-12-20T12:33:44.012Z,7.00
2018-12-20T12:34:44.061Z,6.90
2018-12-20T12:35:44.010Z,6.80
2018-12-20T12:36:43.977Z,7.20
2018-12-20T12:37:43.971Z,7.30
2018-12-20T12:38:43.963Z,7.70
2018-12-20T12:39:43.946Z,7.30
2018-12-20T12:40:43.999Z,7.30
2018-12-20T12:41:43.938Z,7.50
2018-12-20T12:42:43.914Z,7.40
2018-12-20T12:43:43.923Z,7.50
2018-12-20T12:44:43.910Z,7.00
2018-12-20T12:45:43.903Z,7.00
2018-12-20T12:46:43.882Z,6.80
2018-12-20T12:47:43.857Z,6.90
2018-12-20T12:48:43.846Z,6.80
2018-12-20T12:49:43.867Z,6.90
2018-12-20T12:50:43.860Z,7.20
2018-12-20T12:51:52.716Z,7.20
2018-12-20T12:52:44.800Z,6.90
2018-12-20T12:53:43.838Z,6.90